Time;durP1;ratioP1;P1;durP2;ratioP2;P2;SDS_P1;SDS_P2;PMS_P1;PMS_P2;Temp;Humidity;BMP_temperature;BMP_pressure;BME280_temperature;BME280_humidity;BME280_pressure;Samples;Min_cycle;Max_cycle;Signal;HPM_P1;HPM_P2
2021/05/01 00:00:24;;;;;;;;;;;;;;;7.49;68.81;100820.67;1664856;85;20455;-77
2021/05/01 00:02:52;;;;;;;;;;;;;;;7.48;68.93;100821.95;1643997;85;20785;-77
2021/05/01 00:05:18;;;;;;;;;;;;;;;7.48;68.89;100818.95;1618154;87;20736;-77
2021/05/01 00:07:44;;;;;;;;;;;;;;;7.44;68.83;100806.95;1664125;85;20259;-77
2021/05/01 00:10:11;;;;;;;;;;;;;;;7.42;68.94;100808.66;1652383;85;20841;-77
2021/05/01 00:12:39;;;;;;;;;;;;;;;7.44;69.04;100809.95;1636472;86;20348;-77
2021/05/01 00:15:06;;;;;;;;;;;;;;;7.45;69.00;100814.24;1611055;87;20479;-77
2021/05/01 00:17:47;;;;;;;;;;;;;;;7.43;69.01;100816.81;1658229;85;20876;-77
2021/05/01 00:20:14;;;;;;;;;;;;;;;7.45;69.10;100803.95;1624751;87;20326;-77
2021/05/01 00:22:40;;;;;;;;;;;;;;;7.47;69.10;100807.38;1623984;86;20189;-77
2021/05/01 00:25:07;;;;;;;;;;;;;;;7.47;69.07;100800.52;1608648;87;20581;-77
2021/05/01 00:27:33;;;;;;;;;;;;;;;7.47;69.11;100803.52;1610589;88;20762;-77
2021/05/01 00:29:59;;;;;;;;;;;;;;;7.48;69.18;100798.38;1668092;85;20778;-77
2021/05/01 00:32:33;;;;;;;;;;;;;;;7.49;69.16;100796.66;1655766;85;20523;-78
2021/05/01 00:34:59;;;;;;;;;;;;;;;7.48;69.14;100793.23;1669174;85;20557;-77
2021/05/01 00:37:25;;;;;;;;;;;;;;;7.49;69.25;100791.52;1663159;85;20216;-78
2021/05/01 00:39:51;;;;;;;;;;;;;;;7.51;69.26;100793.66;1665330;85;20905;-78
2021/05/01 00:42:17;;;;;;;;;;;;;;;7.53;69.27;100797.09;1660503;85;20262;-78
2021/05/01 00:44:43;;;;;;;;;;;;;;;7.53;69.25;100794.08;1661154;85;20447;-78
2021/05/01 00:47:09;;;;;;;;;;;;;;;7.54;69.20;100806.52;1668511;85;20257;-78
2021/05/01 00:49:35;;;;;;;;;;;;;;;7.52;69.25;100813.38;1666401;85;20467;-78
2021/05/01 00:52:01;;;;;;;;;;;;;;;7.52;69.24;100810.81;1661269;85;20332;-78
2021/05/01 00:54:27;;;;;;;;;;;;;;;7.50;69.17;100808.23;1675997;85;20254;-78
2021/05/01 00:56:56;;;;;;;;;;;;;;;7.48;69.14;100801.38;1666944;85;20513;-78
2021/05/01 00:59:22;;;;;;;;;;;;;;;7.43;69.21;100794.95;1667677;85;20546;-78
2021/05/01 01:01:50;;;;;;;;;;;;;;;7.38;69.22;100797.09;1646229;85;20793;-78
2021/05/01 01:04:16;;;;;;;;;;;;;;;7.34;69.09;100796.23;1645862;85;20910;-78
2021/05/01 01:06:43;;;;;;;;;;;;;;;7.27;69.11;100794.12;1646885;84;20264;-78
2021/05/01 01:09:09;;;;;;;;;;;;;;;7.23;69.23;100800.55;1640776;86;20313;-78
2021/05/01 01:11:36;;;;;;;;;;;;;;;7.20;69.29;100802.69;1675546;84;20547;-78
2021/05/01 01:14:04;;;;;;;;;;;;;;;7.21;69.36;100808.69;1643773;86;20464;-78
2021/05/01 01:16:31;;;;;;;;;;;;;;;7.20;69.36;100805.25;1633739;86;20467;-79
2021/05/01 01:18:57;;;;;;;;;;;;;;;7.20;69.29;100807.83;1687560;84;20815;-79
2021/05/01 01:21:25;;;;;;;;;;;;;;;7.20;69.30;100810.40;1624444;86;20465;-79
2021/05/01 01:23:51;;;;;;;;;;;;;;;7.19;69.42;100806.11;1681679;84;20274;-79
2021/05/01 01:26:17;;;;;;;;;;;;;;;7.20;69.34;100801.83;1666627;84;20545;-79
2021/05/01 01:28:44;;;;;;;;;;;;;;;7.18;69.46;100804.83;1473832;84;5002034;-79
2021/05/01 01:31:10;;;;;;;;;;;;;;;7.15;69.40;100809.53;1662485;84;20798;-79
2021/05/01 01:33:36;;;;;;;;;;;;;;;7.14;69.44;100814.25;1678407;84;20201;-78
2021/05/01 01:36:05;;;;;;;;;;;;;;;7.13;69.34;100812.53;1670571;84;20560;-78
2021/05/01 01:38:31;;;;;;;;;;;;;;;7.11;69.40;100807.81;1670051;84;20464;-78
2021/05/01 01:40:57;;;;;;;;;;;;;;;7.10;69.49;100812.53;1665340;84;20527;-78
2021/05/01 01:43:25;;;;;;;;;;;;;;;7.11;69.52;100815.53;1666764;84;20442;-78
2021/05/01 01:45:52;;;;;;;;;;;;;;;7.09;69.18;100829.23;1637902;86;20442;-78
2021/05/01 01:48:18;;;;;;;;;;;;;;;7.02;69.36;100828.38;1678286;84;20542;-78
2021/05/01 01:50:45;;;;;;;;;;;;;;;7.00;69.43;100826.65;1687773;84;20521;-78
2021/05/01 01:53:12;;;;;;;;;;;;;;;6.97;69.36;100831.36;1655569;84;20416;-78
2021/05/01 01:55:38;;;;;;;;;;;;;;;6.92;69.44;100832.63;1665364;84;20251;-78
2021/05/01 01:58:23;;;;;;;;;;;;;;;6.88;69.38;100818.48;1653497;84;20794;-78
2021/05/01 02:00:51;;;;;;;;;;;;;;;6.85;69.48;100811.62;1667704;84;20444;-78
2021/05/01 02:03:17;;;;;;;;;;;;;;;6.83;69.45;100809.91;1684475;84;20442;-78
2021/05/01 02:05:45;;;;;;;;;;;;;;;6.80;69.50;100806.89;1676555;84;20784;-79
2021/05/01 02:08:12;;;;;;;;;;;;;;;6.80;69.51;100812.03;1662466;84;20470;-79
2021/05/01 02:10:39;;;;;;;;;;;;;;;6.79;69.59;100805.61;1684052;84;20760;-79
2021/05/01 02:13:05;;;;;;;;;;;;;;;6.80;69.65;100804.75;1677302;85;20860;-79
2021/05/01 02:15:32;;;;;;;;;;;;;;;6.81;69.65;100821.46;1626973;86;20507;-79
2021/05/01 02:18:00;;;;;;;;;;;;;;;6.79;69.64;100819.31;1643025;86;20254;-79
2021/05/01 02:20:28;;;;;;;;;;;;;;;6.77;69.64;100818.45;1643509;85;20541;-79
2021/05/01 02:22:56;;;;;;;;;;;;;;;6.71;69.58;100814.61;1644517;85;20473;-79
2021/05/01 02:25:23;;;;;;;;;;;;;;;6.66;69.46;100817.59;1654129;86;20496;-79
2021/05/01 02:27:49;;;;;;;;;;;;;;;6.60;69.63;100812.01;1653027;85;20735;-79
2021/05/01 02:30:18;;;;;;;;;;;;;;;6.58;69.70;100818.85;1663068;85;20479;-78
2021/05/01 02:32:45;;;;;;;;;;;;;;;6.56;69.71;100833.41;1663370;85;20514;-78
2021/05/01 02:35:13;;;;;;;;;;;;;;;6.54;69.78;100842.81;1679756;84;20274;-78
2021/05/01 02:37:40;;;;;;;;;;;;;;;6.53;69.78;100848.80;1679765;84;20524;-78
2021/05/01 02:40:08;;;;;;;;;;;;;;;6.54;69.79;100841.53;1670083;85;20150;-78
2021/05/01 02:42:34;;;;;;;;;;;;;;;6.55;69.86;100843.67;1665533;84;20569;-78
2021/05/01 02:45:03;;;;;;;;;;;;;;;6.54;69.73;100834.25;1622783;87;20307;-78
2021/05/01 02:47:29;;;;;;;;;;;;;;;6.49;69.83;100840.66;1632950;86;20668;-78
2021/05/01 02:49:55;;;;;;;;;;;;;;;6.46;69.81;100832.93;1668398;85;20292;-78
2021/05/01 02:52:21;;;;;;;;;;;;;;;6.44;69.86;100826.07;1663805;85;20293;-78
2021/05/01 02:54:48;;;;;;;;;;;;;;;6.42;69.84;100823.49;1657427;85;20292;-78
2021/05/01 02:57:16;;;;;;;;;;;;;;;6.39;69.79;100826.05;1676297;85;20310;-78
2021/05/01 02:59:42;;;;;;;;;;;;;;;6.33;69.74;100819.59;1666283;85;20321;-78
2021/05/01 03:02:08;;;;;;;;;;;;;;;6.29;69.95;100816.16;1643741;85;20317;-78
2021/05/01 03:04:34;;;;;;;;;;;;;;;6.30;69.93;100822.16;1660599;85;20214;-78
2021/05/01 03:07:00;;;;;;;;;;;;;;;6.32;70.03;100828.16;1651708;85;20294;-78
2021/05/01 03:09:27;;;;;;;;;;;;;;;6.35;70.03;100831.16;1661351;85;20200;-78
2021/05/01 03:11:53;;;;;;;;;;;;;;;6.35;69.97;100836.30;1664741;85;20635;-78
2021/05/01 03:14:19;;;;;;;;;;;;;;;6.30;69.96;100838.42;1653481;85;20493;-78
2021/05/01 03:16:46;;;;;;;;;;;;;;;6.28;69.98;100837.55;1677574;85;20301;-78
2021/05/01 03:19:12;;;;;;;;;;;;;;;6.27;70.05;100828.56;1663102;85;20310;-78
2021/05/01 03:21:38;;;;;;;;;;;;;;;6.28;70.11;100809.73;1657545;85;20293;-78
2021/05/01 03:24:05;;;;;;;;;;;;;;;6.27;70.07;100801.17;1679612;85;20647;-78
2021/05/01 03:26:31;;;;;;;;;;;;;;;6.22;69.93;100800.32;1662460;85;20277;-78
2021/05/01 03:28:57;;;;;;;;;;;;;;;6.15;69.97;100802.42;1661430;85;20321;-78
2021/05/01 03:31:23;;;;;;;;;;;;;;;6.13;70.08;100807.12;1654177;85;20466;-78
2021/05/01 03:33:49;;;;;;;;;;;;;;;6.11;70.10;100807.53;1676109;85;20190;-78
2021/05/01 03:36:15;;;;;;;;;;;;;;;6.06;70.10;100795.95;1676614;85;20251;-78
2021/05/01 03:38:41;;;;;;;;;;;;;;;6.02;70.00;100787.80;1656408;85;20271;-78
2021/05/01 03:41:10;;;;;;;;;;;;;;;5.97;70.15;100782.65;1657596;85;20192;-79
2021/05/01 03:43:36;;;;;;;;;;;;;;;5.96;70.25;100789.05;1635271;86;20265;-79
2021/05/01 03:46:02;;;;;;;;;;;;;;;5.94;70.17;100785.63;1654606;85;20171;-79
2021/05/01 03:48:28;;;;;;;;;;;;;;;5.94;70.30;100781.77;1622938;86;20286;-79
2021/05/01 03:50:54;;;;;;;;;;;;;;;5.93;70.33;100789.90;1615956;87;20273;-79
2021/05/01 03:53:21;;;;;;;;;;;;;;;5.93;70.32;100792.47;1624312;87;20298;-79
2021/05/01 03:55:47;;;;;;;;;;;;;;;5.92;70.31;100794.59;1640069;86;20518;-79
2021/05/01 03:58:14;;;;;;;;;;;;;;;5.92;70.41;100789.89;1625122;87;20210;-79
2021/05/01 04:00:40;;;;;;;;;;;;;;;5.96;70.49;100789.91;1643370;87;20264;-79
2021/05/01 04:03:06;;;;;;;;;;;;;;;6.02;70.52;100801.06;1635321;86;20220;-79
2021/05/01 04:05:33;;;;;;;;;;;;;;;6.04;70.47;100812.20;1625950;87;20249;-79
2021/05/01 04:07:59;;;;;;;;;;;;;;;6.04;70.42;100807.93;1645121;86;20255;-79
2021/05/01 04:10:25;;;;;;;;;;;;;;;6.03;70.49;100807.49;1655300;86;20235;-78
2021/05/01 04:12:51;;;;;;;;;;;;;;;6.07;70.60;100805.80;1632848;86;20287;-78
2021/05/01 04:15:17;;;;;;;;;;;;;;;6.11;70.53;100817.38;1624530;87;20593;-78
2021/05/01 04:17:43;;;;;;;;;;;;;;;6.15;70.54;100820.82;1644450;85;20272;-78
2021/05/01 04:20:11;;;;;;;;;;;;;;;6.17;70.61;100828.11;1655771;85;20304;-78
2021/05/01 04:22:37;;;;;;;;;;;;;;;6.20;70.58;100832.84;1637520;86;20301;-78
2021/05/01 04:25:05;;;;;;;;;;;;;;;6.20;70.50;100830.27;1638520;86;20242;-78
2021/05/01 04:27:30;;;;;;;;;;;;;;;6.20;70.54;100838.39;1608941;87;20305;-78
2021/05/01 04:29:57;;;;;;;;;;;;;;;6.22;70.52;100831.56;1608843;87;20352;-78
2021/05/01 04:32:24;;;;;;;;;;;;;;;6.22;70.47;100821.29;1646176;85;20297;-78
2021/05/01 04:34:50;;;;;;;;;;;;;;;6.20;70.54;100810.16;1657154;86;20300;-79
2021/05/01 04:37:18;;;;;;;;;;;;;;;6.22;70.52;100818.72;1617212;87;20340;-79
2021/05/01 04:39:44;;;;;;;;;;;;;;;6.21;70.44;100817.00;1619743;86;20288;-79
2021/05/01 04:42:12;;;;;;;;;;;;;;;6.17;70.55;100821.27;1610869;87;20229;-79
2021/05/01 04:44:38;;;;;;;;;;;;;;;6.18;70.55;100819.55;1638594;86;20339;-79
2021/05/01 04:47:04;;;;;;;;;;;;;;;6.15;70.61;100818.26;1619962;87;20278;-79
2021/05/01 04:49:32;;;;;;;;;;;;;;;6.18;70.66;100825.55;1611081;88;20299;-79
2021/05/01 04:51:59;;;;;;;;;;;;;;;6.18;70.65;100822.98;1665675;85;20489;-79
2021/05/01 04:54:27;;;;;;;;;;;;;;;6.18;70.60;100816.98;1645811;85;41076;-79
2021/05/01 04:56:53;;;;;;;;;;;;;;;6.16;70.58;100805.42;1672192;85;20197;-79
2021/05/01 04:59:19;;;;;;;;;;;;;;;6.17;70.62;100813.98;1678177;85;20165;-78
2021/05/01 05:01:50;;;;;;;;;;;;;;;6.16;70.64;100815.70;1667774;85;20257;-78
2021/05/01 05:04:16;;;;;;;;;;;;;;;6.16;70.68;100814.84;1664320;85;20200;-79
2021/05/01 05:06:42;;;;;;;;;;;;;;;6.19;70.66;100817.42;1670836;85;20172;-79
2021/05/01 05:09:09;;;;;;;;;;;;;;;6.21;70.77;100819.57;1666508;85;20294;-80
2021/05/01 05:11:35;;;;;;;;;;;;;;;6.23;70.76;100820.02;1655864;85;20292;-80
2021/05/01 05:14:01;;;;;;;;;;;;;;;6.28;70.78;100825.14;1658512;84;20256;-80
2021/05/01 05:16:29;;;;;;;;;;;;;;;6.32;70.75;100825.59;1668815;85;20267;-80
2021/05/01 05:18:56;;;;;;;;;;;;;;;6.33;70.66;100823.45;1629614;86;20303;-80
2021/05/01 05:21:23;;;;;;;;;;;;;;;6.33;70.63;100826.02;1617464;87;20281;-79
2021/05/01 05:23:49;;;;;;;;;;;;;;;6.31;70.58;100824.73;1634673;86;20252;-79
2021/05/01 05:26:15;;;;;;;;;;;;;;;6.30;70.68;100824.30;1624141;87;20285;-79
2021/05/01 05:28:41;;;;;;;;;;;;;;;6.30;70.65;100822.16;1649306;86;20302;-79
2021/05/01 05:31:10;;;;;;;;;;;;;;;6.30;70.65;100829.44;1613035;87;20274;-79
2021/05/01 05:33:36;;;;;;;;;;;;;;;6.35;70.70;100840.16;1639304;86;20217;-78
2021/05/01 05:36:03;;;;;;;;;;;;;;;6.36;70.68;100845.30;1659907;85;20347;-79
2021/05/01 05:38:29;;;;;;;;;;;;;;;6.38;70.64;100849.16;1646817;86;20757;-79
2021/05/01 05:40:55;;;;;;;;;;;;;;;6.38;70.53;100850.44;1649205;86;20350;-79
2021/05/01 05:43:22;;;;;;;;;;;;;;;6.38;70.64;100850.02;1623636;87;20298;-79
2021/05/01 05:45:48;;;;;;;;;;;;;;;6.42;70.70;100853.03;1639575;87;20537;-79
2021/05/01 05:48:17;;;;;;;;;;;;;;;6.47;70.64;100849.20;1627126;87;20335;-80
2021/05/01 05:50:45;;;;;;;;;;;;;;;6.47;70.62;100851.34;1670085;85;20605;-79
2021/05/01 05:53:11;;;;;;;;;;;;;;;6.45;70.52;100849.20;1661636;85;20245;-78
2021/05/01 05:55:38;;;;;;;;;;;;;;;6.49;70.74;100850.92;1640407;86;20346;-77
2021/05/01 05:58:04;;;;;;;;;;;;;;;6.51;70.48;100845.37;1607198;87;20312;-77
2021/05/01 06:00:31;;;;;;;;;;;;;;;6.51;70.58;100849.65;1641350;85;20307;-77
2021/05/01 06:03:00;;;;;;;;;;;;;;;6.50;70.42;100844.08;1600208;88;20302;-77
2021/05/01 06:05:30;;;;;;;;;;;;;;;6.49;70.64;100841.08;1660349;85;20310;-77
2021/05/01 06:08:01;;;;;;;;;;;;;;;6.57;70.69;100840.69;1657420;85;20263;-77
2021/05/01 06:10:29;;;;;;;;;;;;;;;6.66;70.67;100838.15;1659146;85;20171;-77
2021/05/01 06:12:55;;;;;;;;;;;;;;;6.75;70.76;100836.90;1649622;85;20282;-77
2021/05/01 06:15:22;;;;;;;;;;;;;;;6.86;70.68;100844.61;1619208;87;20296;-77
2021/05/01 06:17:50;;;;;;;;;;;;;;;6.94;70.64;100842.48;1634985;85;20259;-77
2021/05/01 06:20:17;;;;;;;;;;;;;;;6.96;70.56;100847.64;1654836;85;20282;-77
2021/05/01 06:22:43;;;;;;;;;;;;;;;7.03;70.67;100847.22;1630483;85;413022;-77
2021/05/01 06:25:12;;;;;;;;;;;;;;;7.11;70.51;100843.81;1655876;85;20267;-77
2021/05/01 06:27:39;;;;;;;;;;;;;;;7.13;70.47;100852.39;1655378;85;20281;-77
2021/05/01 06:30:08;;;;;;;;;;;;;;;7.15;70.38;100853.68;1638476;85;20267;-77
2021/05/01 06:32:34;;;;;;;;;;;;;;;7.16;70.45;100849.83;1623166;87;20291;-76
2021/05/01 06:35:01;;;;;;;;;;;;;;;7.18;70.37;100850.69;1600923;88;20201;-76
2021/05/01 06:37:28;;;;;;;;;;;;;;;7.22;70.56;100849.84;1610463;88;20279;-76
2021/05/01 06:40:04;;;;;;;;;;;;;;;7.31;70.50;100852.81;1656884;85;20540;-76
2021/05/01 06:42:29;;;;;;;;;;;;;;;7.34;70.42;100848.11;1660392;85;20282;-76
2021/05/01 06:45:05;;;;;;;;;;;;;;;7.35;70.35;100845.53;1642175;85;20311;-77
2021/05/01 06:47:32;;;;;;;;;;;;;;;7.36;70.37;100839.96;1640908;85;20317;-76
2021/05/01 06:50:09;;;;;;;;;;;;;;;7.40;70.32;100835.25;1653608;85;20310;-76
2021/05/01 06:52:42;;;;;;;;;;;;;;;7.40;70.32;100839.11;1642997;85;20271;-76
2021/05/01 06:55:14;;;;;;;;;;;;;;;7.44;70.24;100839.54;1638022;85;20287;-77
2021/05/01 06:57:50;;;;;;;;;;;;;;;7.43;70.32;100837.82;1644837;85;20558;-78
2021/05/01 07:00:18;;;;;;;;;;;;;;;7.44;70.23;100836.97;1648542;85;20309;-78
2021/05/01 07:02:47;;;;;;;;;;;;;;;7.45;70.15;100834.82;1644825;85;20271;-78
2021/05/01 07:05:18;;;;;;;;;;;;;;;7.47;70.37;100834.39;1623592;86;20287;-77
2021/05/01 07:07:45;;;;;;;;;;;;;;;7.53;70.33;100839.55;1621656;87;20480;-78
2021/05/01 07:10:13;;;;;;;;;;;;;;;7.52;70.10;100832.68;1620046;87;20283;-78
2021/05/01 07:12:40;;;;;;;;;;;;;;;7.51;70.23;100845.11;1613289;87;20275;-78
2021/05/01 07:15:09;;;;;;;;;;;;;;;7.56;70.26;100845.98;1627082;87;20289;-76
2021/05/01 07:17:36;;;;;;;;;;;;;;;7.60;70.26;100844.69;1627553;87;20304;-75
2021/05/01 07:20:04;;;;;;;;;;;;;;;7.70;70.39;100852.41;1632363;85;20256;-76
2021/05/01 07:22:30;;;;;;;;;;;;;;;7.73;70.15;100854.55;1657241;85;20271;-79
2021/05/01 07:24:57;;;;;;;;;;;;;;;7.79;70.18;100858.84;1656403;85;20160;-79
2021/05/01 07:27:43;;;;;;;;;;;;;;;7.80;70.09;100860.09;1624804;85;143258;-78
2021/05/01 07:30:11;;;;;;;;;;;;;;;7.85;70.21;100860.95;1626793;87;20261;-78
2021/05/01 07:32:39;;;;;;;;;;;;;;;8.01;70.26;100855.78;1625867;87;20558;-79
2021/05/01 07:35:08;;;;;;;;;;;;;;;8.09;70.16;100860.49;1628500;87;20168;-79
2021/05/01 07:37:38;;;;;;;;;;;;;;;8.15;70.04;100855.33;1628601;86;20284;-79
2021/05/01 07:40:07;;;;;;;;;;;;;;;8.15;70.01;100848.46;1636316;86;20307;-79
2021/05/01 07:42:38;;;;;;;;;;;;;;;8.17;69.88;100852.32;1617443;87;20282;-79
2021/05/01 07:45:07;;;;;;;;;;;;;;;8.25;70.04;100848.00;1629484;87;20284;-76
2021/05/01 07:47:35;;;;;;;;;;;;;;;8.29;69.93;100851.86;1639336;87;20289;-76
2021/05/01 07:50:02;;;;;;;;;;;;;;;8.35;69.79;100858.72;1650870;85;20266;-77
2021/05/01 07:52:30;;;;;;;;;;;;;;;8.33;69.75;100862.16;1632462;87;20311;-78
2021/05/01 07:54:56;;;;;;;;;;;;;;;8.33;69.77;100855.28;1649408;84;20302;-78
2021/05/01 07:57:24;;;;;;;;;;;;;;;8.41;69.91;100861.27;1636578;85;20302;-78
2021/05/01 07:59:50;;;;;;;;;;;;;;;8.42;69.75;100857.84;1644569;85;20274;-78
2021/05/01 08:02:16;;;;;;;;;;;;;;;8.40;69.59;100856.98;1641149;85;20196;-77
2021/05/01 08:04:42;;;;;;;;;;;;;;;8.38;69.67;100862.57;1646302;85;20272;-77
2021/05/01 08:07:08;;;;;;;;;;;;;;;8.41;69.61;100868.15;1648648;85;20269;-77
2021/05/01 08:09:34;;;;;;;;;;;;;;;8.40;69.57;100871.59;1624192;87;20201;-77
2021/05/01 08:12:00;;;;;;;;;;;;;;;8.37;69.43;100863.44;1649269;85;20200;-77
2021/05/01 08:14:26;;;;;;;;;;;;;;;8.36;69.50;100873.74;1647090;85;20312;-77
2021/05/01 08:16:53;;;;;;;;;;;;;;;8.44;69.80;100875.87;1624010;86;20272;-77
2021/05/01 08:19:19;;;;;;;;;;;;;;;8.51;69.64;100879.71;1604539;87;20437;-77
2021/05/01 08:21:45;;;;;;;;;;;;;;;8.63;69.66;100877.09;1592057;88;20206;-77
2021/05/01 08:24:11;;;;;;;;;;;;;;;8.76;69.72;100878.33;1652860;85;20441;-77
2021/05/01 08:26:37;;;;;;;;;;;;;;;8.82;69.41;100867.99;1635434;86;20151;-77
2021/05/01 08:29:03;;;;;;;;;;;;;;;8.86;69.31;100873.53;1632284;86;20283;-77
2021/05/01 08:31:29;;;;;;;;;;;;;;;8.89;69.35;100875.66;1638202;86;20531;-78
2021/05/01 08:33:57;;;;;;;;;;;;;;;8.96;69.39;100881.64;1644581;86;20263;-77
2021/05/01 08:36:25;;;;;;;;;;;;;;;9.00;69.05;100875.61;1637498;86;20256;-77
2021/05/01 08:38:51;;;;;;;;;;;;;;;8.92;69.01;100879.95;1613764;87;20277;-77
2021/05/01 08:41:17;;;;;;;;;;;;;;;8.88;69.16;100873.09;1644941;85;20171;-77
2021/05/01 08:43:43;;;;;;;;;;;;;;;8.92;69.21;100867.05;1598719;87;20195;-77
2021/05/01 08:46:14;;;;;;;;;;;;;;;9.00;69.31;100871.73;1609578;88;20274;-77
2021/05/01 08:48:47;;;;;;;;;;;;;;;9.04;69.16;100866.13;1650838;85;20296;-77
2021/05/01 08:51:15;;;;;;;;;;;;;;;9.09;69.17;100873.41;1661840;85;20263;-77
2021/05/01 08:53:41;;;;;;;;;;;;;;;9.10;69.02;100875.13;1670138;85;20271;-77
2021/05/01 08:56:08;;;;;;;;;;;;;;;9.16;69.09;100876.38;1651104;85;20298;-77
2021/05/01 08:58:35;;;;;;;;;;;;;;;9.18;68.93;100875.50;1668598;84;20277;-77
2021/05/01 09:01:01;;;;;;;;;;;;;;;9.19;68.92;100879.80;1663067;85;20209;-77
2021/05/01 09:03:27;;;;;;;;;;;;;;;9.19;68.97;100877.22;1656435;84;20264;-77
2021/05/01 09:05:55;;;;;;;;;;;;;;;9.19;68.88;100877.22;1642916;86;20260;-78
2021/05/01 09:08:23;;;;;;;;;;;;;;;9.19;68.98;100881.09;1657893;85;20263;-78
2021/05/01 09:10:51;;;;;;;;;;;;;;;9.23;68.88;100877.63;1640442;86;20279;-78
2021/05/01 09:13:25;;;;;;;;;;;;;;;9.23;68.83;100883.22;1626252;86;20308;-78
2021/05/01 09:16:03;;;;;;;;;;;;;;;9.29;68.92;100874.15;1672072;84;20327;-78
2021/05/01 09:18:46;;;;;;;;;;;;;;;9.40;68.99;100877.48;1658889;84;20310;-78
2021/05/01 09:21:18;;;;;;;;;;;;;;;9.50;68.79;100878.28;1652678;84;20304;-78
2021/05/01 09:23:45;;;;;;;;;;;;;;;9.56;68.64;100876.51;1654078;86;20310;-78
2021/05/01 09:26:11;;;;;;;;;;;;;;;9.62;68.84;100873.02;1647198;86;20279;-78
2021/05/01 09:28:45;;;;;;;;;;;;;;;9.72;68.78;100864.33;1625638;86;20282;-78
2021/05/01 09:31:13;;;;;;;;;;;;;;;9.83;68.73;100857.35;1662375;85;20572;-78
2021/05/01 09:33:50;;;;;;;;;;;;;;;9.90;68.54;100856.39;1651288;84;20290;-77
2021/05/01 09:36:24;;;;;;;;;;;;;;;9.95;68.58;100851.19;1661905;84;20428;-77
2021/05/01 09:38:59;;;;;;;;;;;;;;;9.98;68.52;100847.28;1667040;84;20287;-77
2021/05/01 09:41:28;;;;;;;;;;;;;;;10.03;68.46;100839.48;1666489;84;20291;-78
2021/05/01 09:44:12;;;;;;;;;;;;;;;10.12;68.44;100836.81;1665135;84;20310;-78
2021/05/01 09:46:43;;;;;;;;;;;;;;;10.13;68.37;100826.45;1664786;84;20305;-78
2021/05/01 09:49:18;;;;;;;;;;;;;;;10.27;68.50;100828.48;1660797;84;20304;-78
2021/05/01 09:51:59;;;;;;;;;;;;;;;10.37;68.42;100829.24;1660915;84;20327;-78
2021/05/01 09:54:29;;;;;;;;;;;;;;;10.41;68.26;100825.72;1657454;85;20287;-78
2021/05/01 09:56:57;;;;;;;;;;;;;;;10.43;68.28;100820.53;1660911;84;20315;-78
2021/05/01 09:59:47;;;;;;;;;;;;;;;10.45;68.13;100813.61;1659165;84;20266;-78
2021/05/01 10:02:16;;;;;;;;;;;;;;;10.55;68.51;100819.08;1661865;84;20554;-78
2021/05/01 10:04:43;;;;;;;;;;;;;;;10.57;68.10;100814.31;1638641;86;20288;-78
2021/05/01 10:07:11;;;;;;;;;;;;;;;10.53;68.00;100813.08;1648965;86;20267;-78
2021/05/01 10:09:39;;;;;;;;;;;;;;;10.50;68.22;100805.36;1667309;84;20279;-78
2021/05/01 10:12:10;;;;;;;;;;;;;;;10.54;68.04;100811.77;1605062;87;20268;-78
2021/05/01 10:14:40;;;;;;;;;;;;;;;10.60;68.07;100812.98;1664546;85;20271;-78
2021/05/01 10:17:06;;;;;;;;;;;;;;;10.63;67.88;100806.91;1644568;86;20187;-78
2021/05/01 10:19:45;;;;;;;;;;;;;;;10.56;67.77;100806.14;1612609;87;20273;-78
2021/05/01 10:22:32;;;;;;;;;;;;;;;10.59;68.03;100814.30;1631307;86;20553;-78
2021/05/01 10:25:01;;;;;;;;;;;;;;;10.65;67.95;100814.66;1628436;86;20267;-78
2021/05/01 10:28:02;;;;;;;;;;;;;;;10.68;68.00;100814.17;1652784;85;20276;-78
2021/05/01 10:31:18;;;;;;;;;;;;;;;10.72;67.91;100812.41;1656012;85;20272;-78
2021/05/01 10:33:32;;;;;;;;;;;;;;;10.79;68.02;100811.01;1634421;84;20364;-77
2021/05/01 10:36:13;;;;;;;;;;;;;;;10.81;67.73;100814.43;1645908;85;20263;-78
2021/05/01 10:38:39;;;;;;;;;;;;;;;10.85;67.75;100811.36;1628896;86;20260;-78
2021/05/01 10:41:07;;;;;;;;;;;;;;;10.89;67.62;100809.16;1641491;86;20290;-78
2021/05/01 10:43:36;;;;;;;;;;;;;;;10.84;67.60;100813.09;1628885;87;20261;-78
2021/05/01 10:46:06;;;;;;;;;;;;;;;10.78;67.58;100810.59;1634396;85;20262;-78
2021/05/01 10:48:51;;;;;;;;;;;;;;;10.78;67.72;100810.59;1635981;85;20300;-78
2021/05/01 10:51:23;;;;;;;;;;;;;;;10.82;67.62;100812.70;1654873;85;20304;-78
2021/05/01 10:54:06;;;;;;;;;;;;;;;10.77;67.46;100810.61;1629370;86;20262;-78
2021/05/01 10:56:33;;;;;;;;;;;;;;;10.70;67.60;100815.45;1634828;86;20301;-78
2021/05/01 10:59:11;;;;;;;;;;;;;;;10.75;67.74;100817.53;1645902;86;20251;-78
2021/05/01 11:01:47;;;;;;;;;;;;;;;10.79;67.59;100821.80;1640153;86;20304;-78
2021/05/01 11:04:26;;;;;;;;;;;;;;;10.77;67.51;100825.70;1636010;86;20295;-78
2021/05/01 11:07:16;;;;;;;;;;;;;;;10.69;67.34;100813.30;1596787;88;20292;-78
2021/05/01 11:09:46;;;;;;;;;;;;;;;10.62;67.40;100811.67;1631983;86;20427;-78
2021/05/01 11:12:15;;;;;;;;;;;;;;;10.68;67.48;100817.20;1600720;88;20301;-78
2021/05/01 11:14:50;;;;;;;;;;;;;;;10.75;67.50;100815.80;1627170;85;20265;-78
2021/05/01 11:17:28;;;;;;;;;;;;;;;10.81;67.46;100807.97;1590917;88;20302;-77
2021/05/01 11:20:00;;;;;;;;;;;;;;;10.85;67.33;100804.45;1601674;89;20552;-77
2021/05/01 11:22:27;;;;;;;;;;;;;;;10.86;67.35;100805.31;1588840;88;20266;-77
2021/05/01 11:24:55;;;;;;;;;;;;;;;10.87;67.19;100803.14;1616197;87;20267;-77
2021/05/01 11:27:21;;;;;;;;;;;;;;;10.78;67.11;100796.80;1627928;87;20277;-77
2021/05/01 11:29:48;;;;;;;;;;;;;;;10.77;67.34;100798.97;1640873;86;20264;-78
2021/05/01 11:32:14;;;;;;;;;;;;;;;10.79;67.25;100799.81;1641988;86;20295;-78
2021/05/01 11:34:40;;;;;;;;;;;;;;;10.75;67.08;100797.70;1636869;86;20261;-77
2021/05/01 11:37:08;;;;;;;;;;;;;;;10.69;67.17;100800.81;1627180;87;20299;-78
2021/05/01 11:39:39;;;;;;;;;;;;;;;10.71;67.22;100804.23;1617449;87;20288;-78
2021/05/01 11:42:07;;;;;;;;;;;;;;;10.70;67.23;100794.32;1613887;87;20286;-78
2021/05/01 11:44:33;;;;;;;;;;;;;;;10.76;67.17;100787.77;1642772;86;20273;-78
2021/05/01 11:47:05;;;;;;;;;;;;;;;10.78;67.20;100793.78;1642121;86;20272;-78
2021/05/01 11:49:31;;;;;;;;;;;;;;;10.80;67.25;100806.69;1632777;86;20255;-78
2021/05/01 11:52:20;;;;;;;;;;;;;;;10.82;67.24;100810.11;1644236;86;20181;-78
2021/05/01 11:55:06;;;;;;;;;;;;;;;10.84;67.07;100820.00;1601365;86;448705;-78
2021/05/01 11:57:49;;;;;;;;;;;;;;;10.76;67.17;100812.78;1616289;85;20272;-78
2021/05/01 12:00:36;;;;;;;;;;;;;;;10.74;67.14;100808.92;1642049;86;20267;-78
2021/05/01 12:03:04;;;;;;;;;;;;;;;10.73;67.19;100802.04;1641895;86;20263;-78
2021/05/01 12:05:33;;;;;;;;;;;;;;;10.76;67.20;100812.34;1623176;86;20273;-78
2021/05/01 12:08:08;;;;;;;;;;;;;;;10.69;67.12;100813.73;1612737;87;20316;-78
2021/05/01 12:10:39;;;;;;;;;;;;;;;10.69;67.19;100814.59;1613844;87;20290;-78
2021/05/01 12:13:10;;;;;;;;;;;;;;;10.66;67.02;100817.66;1615965;87;20573;-78
2021/05/01 12:15:38;;;;;;;;;;;;;;;10.56;67.01;100819.06;1591346;88;20175;-78
2021/05/01 12:18:05;;;;;;;;;;;;;;;10.49;67.11;100814.84;1609694;87;20486;-78
2021/05/01 12:20:33;;;;;;;;;;;;;;;10.46;67.12;100820.48;1588014;88;20574;-78
2021/05/01 12:23:10;;;;;;;;;;;;;;;10.43;67.21;100820.09;1604171;88;20192;-78
2021/05/01 12:25:48;;;;;;;;;;;;;;;10.49;67.29;100821.31;1618976;87;20288;-78
2021/05/01 12:28:14;;;;;;;;;;;;;;;10.56;67.16;100818.21;1647208;85;20303;-78
2021/05/01 12:30:46;;;;;;;;;;;;;;;10.58;67.16;100820.34;1643510;85;20722;-78
2021/05/01 12:33:26;;;;;;;;;;;;;;;10.65;67.26;100823.70;1622919;87;20304;-77
2021/05/01 12:35:58;;;;;;;;;;;;;;;10.70;67.02;100827.94;1638858;86;20279;-78
2021/05/01 12:38:26;;;;;;;;;;;;;;;10.65;66.96;100826.30;1646288;85;20274;-78
2021/05/01 12:41:14;;;;;;;;;;;;;;;10.58;66.96;100822.92;1634076;86;20283;-78
2021/05/01 12:43:49;;;;;;;;;;;;;;;10.48;67.01;100822.19;1646811;85;20270;-78
2021/05/01 12:46:30;;;;;;;;;;;;;;;10.47;67.04;100828.66;1622405;87;20283;-78
2021/05/01 12:49:02;;;;;;;;;;;;;;;10.42;67.09;100820.96;1615190;87;20307;-78
2021/05/01 12:51:33;;;;;;;;;;;;;;;10.39;67.07;100829.22;1621217;87;20279;-78